createdAt,value
2018-02-18T00:00:19.337Z,22.93
2018-02-18T00:01:21.370Z,22.84
2018-02-18T00:02:19.269Z,22.93
2018-02-18T00:03:19.905Z,22.86
2018-02-18T00:04:24.059Z,22.89
2018-02-18T00:05:22.223Z,22.86
2018-02-18T00:06:19.237Z,22.86
2018-02-18T00:07:19.092Z,22.89
2018-02-18T00:08:19.092Z,22.83
2018-02-18T00:09:19.015Z,22.81
2018-02-18T00:10:18.992Z,22.91
2018-02-18T00:11:18.947Z,22.83
2018-02-18T00:12:18.930Z,22.88
2018-02-18T00:13:18.970Z,22.84
2018-02-18T00:14:23.168Z,22.78
2018-02-18T00:15:19.427Z,22.84
2018-02-18T00:16:24.857Z,22.81
2018-02-18T00:17:22.765Z,22.77
2018-02-18T00:18:18.693Z,22.80
2018-02-18T00:22:35.392Z,22.89
2018-02-18T00:23:21.903Z,22.83
2018-02-18T00:24:20.292Z,22.83
2018-02-18T00:25:19.226Z,22.83
2018-02-18T00:26:25.462Z,22.86
2018-02-18T00:28:20.963Z,22.88
2018-02-18T00:29:18.857Z,22.78
2018-02-18T00:30:21.669Z,22.91
2018-02-18T00:32:18.755Z,22.81
2018-02-18T00:33:18.720Z,22.86
2018-02-18T00:34:18.706Z,22.89
2018-02-18T00:35:19.010Z,22.83
2018-02-18T00:36:18.610Z,22.86
2018-02-18T00:37:18.581Z,22.80
2018-02-18T00:38:19.068Z,22.86
2018-02-18T00:39:19.072Z,22.89
2018-02-18T00:40:25.863Z,22.86
2018-02-18T00:41:18.945Z,22.83
2018-02-18T00:42:18.395Z,22.88
2018-02-18T00:43:18.995Z,22.89
2018-02-18T00:44:18.326Z,22.84
2018-02-18T00:45:20.161Z,22.88
2018-02-18T00:46:18.255Z,22.86
2018-02-18T00:47:18.218Z,22.92
2018-02-18T00:48:18.182Z,22.88
2018-02-18T00:49:28.559Z,22.84
2018-02-18T00:50:18.138Z,22.84
2018-02-18T00:51:18.800Z,22.91
2018-02-18T00:52:22.818Z,22.89
2018-02-18T00:53:18.008Z,22.84
2018-02-18T00:54:20.881Z,22.80
2018-02-18T00:55:18.205Z,22.89
2018-02-18T00:56:17.898Z,22.89
2018-02-18T00:57:17.888Z,22.77
2018-02-18T00:58:17.840Z,22.91
2018-02-18T00:59:17.834Z,22.86
2018-02-18T01:00:17.753Z,22.88
2018-02-18T01:01:17.807Z,22.91
2018-02-18T01:02:17.965Z,22.88
2018-02-18T01:03:26.430Z,22.89
2018-02-18T01:04:17.615Z,22.88
2018-02-18T01:05:17.628Z,22.81
2018-02-18T01:06:17.680Z,22.83
2018-02-18T01:07:17.538Z,22.84
2018-02-18T01:08:17.664Z,22.88
2018-02-18T01:09:17.631Z,22.92
2018-02-18T01:10:17.694Z,22.86
2018-02-18T01:11:17.514Z,22.84
2018-02-18T01:12:17.973Z,22.91
2018-02-18T01:13:17.321Z,22.88
2018-02-18T01:14:17.276Z,22.81
2018-02-18T01:15:18.294Z,22.81
2018-02-18T01:16:17.181Z,22.83
2018-02-18T01:17:17.266Z,22.88
2018-02-18T01:18:17.626Z,22.84
2018-02-18T01:19:17.103Z,22.81
2018-02-18T01:20:17.042Z,22.89
2018-02-18T01:21:17.026Z,22.91
2018-02-18T01:22:16.972Z,22.84
2018-02-18T01:23:18.074Z,22.83
2018-02-18T01:24:17.219Z,22.74
2018-02-18T01:25:17.713Z,22.84
2018-02-18T01:26:17.838Z,22.77
2018-02-18T01:27:16.839Z,22.83
2018-02-18T01:28:16.757Z,22.81
2018-02-18T01:29:16.721Z,22.88
2018-02-18T01:30:16.720Z,22.80
2018-02-18T01:31:16.652Z,22.89
2018-02-18T01:32:16.612Z,22.83
2018-02-18T01:33:20.296Z,22.77
2018-02-18T01:34:16.568Z,22.76
2018-02-18T01:35:16.607Z,22.77
2018-02-18T01:36:16.709Z,22.77
2018-02-18T01:37:16.784Z,22.80
2018-02-18T01:38:16.396Z,22.83
2018-02-18T01:39:26.253Z,22.81
2018-02-18T01:40:16.327Z,22.76
2018-02-18T01:41:16.315Z,22.84
2018-02-18T01:42:17.977Z,22.81
2018-02-18T01:43:16.517Z,22.77
2018-02-18T01:44:19.646Z,22.81
2018-02-18T01:45:16.149Z,22.78
2018-02-18T01:46:16.330Z,22.77
2018-02-18T01:47:16.109Z,22.81
2018-02-18T01:48:16.463Z,22.78
2018-02-18T01:49:16.307Z,22.77
2018-02-18T01:50:15.971Z,22.80
2018-02-18T01:51:21.121Z,22.77
2018-02-18T01:52:16.041Z,22.78
2018-02-18T01:53:16.119Z,22.83
2018-02-18T01:54:15.911Z,22.74
2018-02-18T01:55:27.783Z,22.76
2018-02-18T01:56:15.757Z,22.83
2018-02-18T01:57:22.499Z,22.80
2018-02-18T01:58:16.746Z,22.80
2018-02-18T01:59:19.933Z,22.80
2018-02-18T02:00:15.611Z,22.80
2018-02-18T02:01:16.352Z,22.84
2018-02-18T02:02:24.810Z,22.74
2018-02-18T02:03:19.669Z,22.78
2018-02-18T02:04:15.867Z,22.78
2018-02-18T02:05:15.639Z,22.73
2018-02-18T02:06:27.809Z,22.83
2018-02-18T02:07:15.367Z,22.78
2018-02-18T02:08:20.432Z,22.78
2018-02-18T02:09:15.291Z,22.80
2018-02-18T02:10:15.578Z,22.76
2018-02-18T02:11:15.311Z,22.83
2018-02-18T02:12:15.182Z,22.77
2018-02-18T02:13:15.346Z,22.76
2018-02-18T02:14:15.123Z,22.78
2018-02-18T02:15:15.974Z,22.74
2018-02-18T02:16:15.739Z,22.78
2018-02-18T02:17:15.046Z,22.67
2018-02-18T02:18:14.967Z,22.71
2018-02-18T02:19:18.203Z,22.78
2018-02-18T02:20:19.796Z,22.76
2018-02-18T02:21:24.039Z,22.77
2018-02-18T02:22:15.185Z,22.80
2018-02-18T02:23:14.792Z,22.77
2018-02-18T02:24:15.182Z,22.78
2018-02-18T02:25:14.937Z,22.77
2018-02-18T02:26:14.682Z,22.73
2018-02-18T02:27:23.124Z,22.63
2018-02-18T02:28:20.140Z,22.76
2018-02-18T02:29:14.575Z,22.65
2018-02-18T02:30:14.629Z,22.68
2018-02-18T02:31:14.504Z,22.70
2018-02-18T02:32:18.231Z,22.76
2018-02-18T02:33:14.435Z,22.74
2018-02-18T02:34:15.837Z,22.63
2018-02-18T02:35:24.950Z,22.76
2018-02-18T02:37:16.842Z,22.62
2018-02-18T02:38:16.351Z,22.68
2018-02-18T02:39:14.221Z,22.76
2018-02-18T02:40:14.461Z,22.65
2018-02-18T02:41:14.794Z,22.76
2018-02-18T02:42:14.455Z,22.77
2018-02-18T02:43:14.083Z,22.76
2018-02-18T02:44:15.931Z,22.62
2018-02-18T02:45:16.902Z,22.61
2018-02-18T02:46:13.971Z,22.78
2018-02-18T02:47:19.278Z,22.63
2018-02-18T02:48:13.898Z,22.67
2018-02-18T02:49:19.548Z,22.70
2018-02-18T02:50:13.871Z,22.70
2018-02-18T02:51:13.870Z,22.68
2018-02-18T02:52:23.213Z,22.65
2018-02-18T02:53:22.583Z,22.63
2018-02-18T02:54:13.685Z,22.74
2018-02-18T02:55:13.891Z,22.65
2018-02-18T02:56:13.925Z,22.70
2018-02-18T02:57:13.573Z,22.71
2018-02-18T02:58:13.544Z,22.63
2018-02-18T02:59:13.626Z,22.70
2018-02-18T03:00:15.046Z,22.62
2018-02-18T03:01:13.471Z,22.63
2018-02-18T03:02:13.417Z,22.65
2018-02-18T03:03:13.361Z,22.63
2018-02-18T03:04:13.613Z,22.70
2018-02-18T03:05:21.212Z,22.65
2018-02-18T03:06:13.256Z,22.59
2018-02-18T03:07:15.824Z,22.71
2018-02-18T03:08:20.732Z,22.62
2018-02-18T03:09:13.147Z,22.76
2018-02-18T03:10:16.356Z,22.73
2018-02-18T03:11:21.762Z,22.70
2018-02-18T03:12:21.892Z,22.68
2018-02-18T03:13:12.999Z,22.59
2018-02-18T03:14:12.965Z,22.73
2018-02-18T03:15:12.937Z,22.71
2018-02-18T03:16:28.050Z,22.67
2018-02-18T03:17:12.982Z,22.67
2018-02-18T03:18:25.757Z,22.70
2018-02-18T03:19:12.926Z,22.68
2018-02-18T03:20:12.783Z,22.68
2018-02-18T03:21:12.719Z,22.56
2018-02-18T03:22:20.010Z,22.58
2018-02-18T03:23:19.094Z,22.65
2018-02-18T03:24:12.617Z,22.62
2018-02-18T03:25:12.577Z,22.67
2018-02-18T03:26:12.540Z,22.68
2018-02-18T03:27:12.684Z,22.61
2018-02-18T03:28:16.359Z,22.65
2018-02-18T03:29:12.460Z,22.67
2018-02-18T03:30:12.396Z,22.67
2018-02-18T03:31:12.365Z,22.70
2018-02-18T03:32:12.328Z,22.67
2018-02-18T03:33:19.786Z,22.63
2018-02-18T03:34:12.272Z,22.65
2018-02-18T03:35:12.297Z,22.68
2018-02-18T03:36:18.063Z,22.70
2018-02-18T03:37:13.810Z,22.61
2018-02-18T03:38:12.112Z,22.70
2018-02-18T03:39:14.664Z,22.65
2018-02-18T03:40:12.165Z,22.59
2018-02-18T03:41:12.301Z,22.63
2018-02-18T03:42:12.088Z,22.74
2018-02-18T03:43:12.150Z,22.68
2018-02-18T03:44:11.896Z,22.63
2018-02-18T03:45:12.134Z,22.62
2018-02-18T03:47:11.784Z,22.61
2018-02-18T03:48:11.774Z,22.67
2018-02-18T03:49:11.716Z,22.65
2018-02-18T03:50:11.682Z,22.62
2018-02-18T03:51:11.671Z,22.65
2018-02-18T03:52:11.607Z,22.70
2018-02-18T03:53:11.573Z,22.65
2018-02-18T03:54:13.555Z,22.65
2018-02-18T03:55:11.498Z,22.67
2018-02-18T03:56:11.483Z,22.62
2018-02-18T03:57:15.316Z,22.59
2018-02-18T03:58:17.016Z,22.63
2018-02-18T03:59:11.672Z,22.62
2018-02-18T04:00:11.323Z,22.63
2018-02-18T04:01:11.322Z,22.63
2018-02-18T04:02:11.249Z,22.62
2018-02-18T04:03:11.733Z,22.61
2018-02-18T04:04:11.175Z,22.67
2018-02-18T04:05:11.153Z,22.65
2018-02-18T04:06:11.104Z,22.63
2018-02-18T04:07:11.253Z,22.62
2018-02-18T04:08:11.091Z,22.55
2018-02-18T04:09:11.045Z,22.65
2018-02-18T04:10:15.785Z,22.62
2018-02-18T04:11:10.923Z,22.61
2018-02-18T04:12:11.021Z,22.59
2018-02-18T04:13:10.880Z,22.56
2018-02-18T04:14:11.081Z,22.61
2018-02-18T04:15:10.783Z,22.61
2018-02-18T04:16:10.806Z,22.58
2018-02-18T04:17:10.960Z,22.65
2018-02-18T04:18:10.721Z,22.56
2018-02-18T04:19:10.643Z,22.68
2018-02-18T04:20:10.604Z,22.56
2018-02-18T04:21:10.570Z,22.61
2018-02-18T04:22:22.631Z,22.62
2018-02-18T04:23:25.624Z,22.62
2018-02-18T04:24:21.107Z,22.65
2018-02-18T04:25:10.999Z,22.63
2018-02-18T04:26:14.264Z,22.62
2018-02-18T04:27:10.350Z,22.59
2018-02-18T04:28:10.317Z,22.55
2018-02-18T04:29:10.552Z,22.59
2018-02-18T04:30:10.347Z,22.58
2018-02-18T04:31:25.100Z,22.59
2018-02-18T04:32:10.360Z,22.58
2018-02-18T04:33:10.135Z,22.56
2018-02-18T04:34:10.100Z,22.61
2018-02-18T04:35:22.820Z,22.55
2018-02-18T04:36:16.976Z,22.56
2018-02-18T04:37:28.603Z,22.58
2018-02-18T04:38:09.961Z,22.59
2018-02-18T04:39:09.928Z,22.53
2018-02-18T04:40:09.925Z,22.59
2018-02-18T04:41:09.856Z,22.58
2018-02-18T04:42:10.797Z,22.56
2018-02-18T04:43:51.158Z,22.59
2018-02-18T04:44:16.076Z,22.63
2018-02-18T04:45:09.844Z,22.59
2018-02-18T04:46:09.701Z,22.59
2018-02-18T04:47:11.812Z,22.62
2018-02-18T04:48:09.699Z,22.58
2018-02-18T04:49:09.613Z,22.63
2018-02-18T04:50:10.183Z,22.59
2018-02-18T04:51:09.505Z,22.61
2018-02-18T04:52:12.232Z,22.56
2018-02-18T04:53:09.418Z,22.59
2018-02-18T04:55:12.730Z,22.52
2018-02-18T04:56:09.312Z,22.51
2018-02-18T04:57:09.497Z,22.58
2018-02-18T04:58:09.343Z,22.59
2018-02-18T04:59:17.157Z,22.63
2018-02-18T05:00:09.167Z,22.53
2018-02-18T05:01:09.131Z,22.56
2018-02-18T05:02:09.173Z,22.58
2018-02-18T05:03:09.106Z,22.55
2018-02-18T05:04:09.134Z,22.58
2018-02-18T05:05:29.464Z,22.62
2018-02-18T05:06:08.953Z,22.63
2018-02-18T05:07:09.139Z,22.56
2018-02-18T05:08:08.916Z,22.61
2018-02-18T05:09:18.166Z,22.58
2018-02-18T05:10:08.808Z,22.58
2018-02-18T05:11:09.133Z,22.58
2018-02-18T05:12:08.740Z,22.59
2018-02-18T05:13:08.707Z,22.56
2018-02-18T05:14:08.685Z,22.58
2018-02-18T05:15:17.666Z,22.52
2018-02-18T05:16:15.595Z,22.52
2018-02-18T05:17:22.252Z,22.58
2018-02-18T05:18:19.184Z,22.55
2018-02-18T05:19:17.006Z,22.67
2018-02-18T05:20:08.952Z,22.58
2018-02-18T05:21:10.249Z,22.59
2018-02-18T05:22:08.813Z,22.55
2018-02-18T05:23:08.409Z,22.56
2018-02-18T05:24:08.826Z,22.59
2018-02-18T05:25:08.304Z,22.58
2018-02-18T05:26:08.242Z,22.53
2018-02-18T05:27:08.199Z,22.56
2018-02-18T05:28:08.168Z,22.53
2018-02-18T05:29:10.430Z,22.61
2018-02-18T05:30:08.096Z,22.58
2018-02-18T05:31:08.084Z,22.58
2018-02-18T05:32:10.768Z,22.55
2018-02-18T05:33:07.982Z,22.56
2018-02-18T05:34:08.244Z,22.53
2018-02-18T05:35:08.405Z,22.49
2018-02-18T05:36:08.688Z,22.59
2018-02-18T05:37:11.862Z,22.58
2018-02-18T05:38:07.809Z,22.49
2018-02-18T05:39:07.801Z,22.61
2018-02-18T05:40:11.007Z,22.55
2018-02-18T05:41:13.522Z,22.46
2018-02-18T05:42:07.691Z,22.56
2018-02-18T05:43:07.630Z,22.59
2018-02-18T05:44:09.191Z,22.65
2018-02-18T05:45:07.759Z,22.61
2018-02-18T05:46:07.541Z,22.65
2018-02-18T05:47:07.487Z,22.62
2018-02-18T05:48:17.509Z,22.62
2018-02-18T05:49:07.416Z,22.59
2018-02-18T05:50:11.215Z,22.52
2018-02-18T05:51:07.342Z,22.59
2018-02-18T05:52:07.300Z,22.58
2018-02-18T05:53:07.715Z,22.56
2018-02-18T05:54:07.268Z,22.53
2018-02-18T05:55:11.948Z,22.49
2018-02-18T05:56:07.162Z,22.56
2018-02-18T05:57:07.364Z,22.61
2018-02-18T05:58:11.612Z,22.59
2018-02-18T05:59:09.536Z,22.52
2018-02-18T06:00:07.017Z,22.55
2018-02-18T06:01:07.115Z,22.52
2018-02-18T06:02:06.947Z,22.56
2018-02-18T06:03:06.908Z,22.62
2018-02-18T06:04:11.984Z,22.55
2018-02-18T06:05:07.253Z,22.59
2018-02-18T06:06:06.855Z,22.59
2018-02-18T06:07:07.343Z,22.61
2018-02-18T06:08:06.731Z,22.65
2018-02-18T06:09:06.694Z,22.52
2018-02-18T06:10:06.688Z,22.58
2018-02-18T06:11:08.059Z,22.58
2018-02-18T06:12:06.584Z,22.58
2018-02-18T06:13:06.735Z,22.59
2018-02-18T06:14:06.644Z,22.56
2018-02-18T06:15:06.665Z,22.56
2018-02-18T06:16:06.463Z,22.56
2018-02-18T06:17:30.979Z,22.49
2018-02-18T06:18:15.128Z,22.55
2018-02-18T06:19:06.401Z,22.55
2018-02-18T06:20:06.348Z,22.53
2018-02-18T06:21:06.268Z,22.56
2018-02-18T06:22:06.265Z,22.55
2018-02-18T06:23:06.713Z,22.52
2018-02-18T06:24:06.156Z,22.53
2018-02-18T06:25:06.308Z,22.49
2018-02-18T06:26:06.081Z,22.56
2018-02-18T06:27:09.254Z,22.53
2018-02-18T06:28:06.043Z,22.55
2018-02-18T06:30:06.021Z,22.56
2018-02-18T06:31:09.351Z,22.59
2018-02-18T06:32:05.867Z,22.47
2018-02-18T06:33:05.981Z,22.56
2018-02-18T06:34:12.272Z,22.53
2018-02-18T06:35:08.383Z,22.49
2018-02-18T06:36:06.016Z,22.52
2018-02-18T06:37:05.688Z,22.59
2018-02-18T06:38:05.664Z,22.55
2018-02-18T06:39:10.520Z,22.63
2018-02-18T06:40:05.584Z,22.55
2018-02-18T06:41:05.801Z,22.58
2018-02-18T06:42:05.535Z,22.59
2018-02-18T06:43:06.041Z,22.44
2018-02-18T06:44:05.665Z,22.61
2018-02-18T06:45:05.425Z,22.56
2018-02-18T06:46:11.390Z,22.56
2018-02-18T06:47:05.327Z,22.67
2018-02-18T06:48:05.467Z,22.53
2018-02-18T06:49:05.858Z,22.59
2018-02-18T06:50:05.223Z,22.56
2018-02-18T06:51:13.939Z,22.55
2018-02-18T06:52:05.146Z,22.58
2018-02-18T06:53:05.116Z,22.49
2018-02-18T06:54:05.080Z,22.58
2018-02-18T06:55:05.208Z,22.59
2018-02-18T06:56:06.415Z,22.55
2018-02-18T06:57:04.999Z,22.59
2018-02-18T06:58:05.058Z,22.58
2018-02-18T06:59:04.937Z,22.63
2018-02-18T07:00:04.861Z,22.58
2018-02-18T07:01:05.418Z,22.61
2018-02-18T07:02:05.173Z,22.58
2018-02-18T07:03:08.773Z,22.67
2018-02-18T07:04:04.720Z,22.63
2018-02-18T07:05:09.520Z,22.67
2018-02-18T07:06:05.538Z,22.63
2018-02-18T07:07:04.635Z,22.59
2018-02-18T07:08:04.808Z,22.62
2018-02-18T07:09:07.638Z,22.65
2018-02-18T07:10:05.229Z,22.58
2018-02-18T07:11:04.470Z,22.61
2018-02-18T07:12:04.436Z,22.70
2018-02-18T07:13:04.821Z,22.70
2018-02-18T07:14:04.587Z,22.65
2018-02-18T07:15:04.329Z,22.59
2018-02-18T07:16:09.048Z,22.62
2018-02-18T07:17:04.250Z,22.62
2018-02-18T07:18:07.999Z,22.68
2018-02-18T07:19:11.273Z,22.68
2018-02-18T07:20:04.142Z,22.74
2018-02-18T07:21:04.110Z,22.58
2018-02-18T07:22:11.021Z,22.63
2018-02-18T07:23:04.161Z,22.71
2018-02-18T07:24:07.035Z,22.68
2018-02-18T07:25:03.993Z,22.70
2018-02-18T07:26:03.936Z,22.68
2018-02-18T07:27:03.937Z,22.67
2018-02-18T07:28:04.180Z,22.67
2018-02-18T07:29:03.826Z,22.74
2018-02-18T07:30:04.059Z,22.70
2018-02-18T07:31:03.938Z,22.76
2018-02-18T07:32:03.735Z,22.74
2018-02-18T07:33:03.681Z,22.67
2018-02-18T07:34:07.191Z,22.77
2018-02-18T07:35:03.606Z,22.76
2018-02-18T07:36:03.666Z,22.61
2018-02-18T07:37:07.245Z,22.84
2018-02-18T07:38:13.016Z,22.83
2018-02-18T07:39:03.463Z,22.83
2018-02-18T07:40:05.642Z,22.78
2018-02-18T07:41:07.016Z,22.78
2018-02-18T07:42:03.440Z,22.83
2018-02-18T07:43:06.324Z,22.76
2018-02-18T07:44:03.416Z,22.83
2018-02-18T07:45:03.249Z,22.83
2018-02-18T07:46:04.255Z,22.84
2018-02-18T07:47:03.217Z,22.92
2018-02-18T07:48:05.098Z,22.89
2018-02-18T07:49:05.227Z,22.91
2018-02-18T07:50:03.068Z,22.88
2018-02-18T07:51:03.064Z,22.89
2018-02-18T07:52:04.258Z,22.81
2018-02-18T07:53:23.432Z,22.84
2018-02-18T07:54:06.199Z,22.81
2018-02-18T07:55:02.897Z,22.89
2018-02-18T07:56:03.277Z,22.83
2018-02-18T07:57:02.822Z,22.92
2018-02-18T07:58:02.798Z,22.93
2018-02-18T07:59:10.973Z,22.96
2018-02-18T08:00:02.787Z,22.96
2018-02-18T08:01:04.514Z,22.92
2018-02-18T08:02:03.297Z,22.95
2018-02-18T08:03:02.653Z,22.93
2018-02-18T08:04:02.605Z,22.88
2018-02-18T08:05:06.102Z,22.95
2018-02-18T08:06:03.792Z,22.88
2018-02-18T08:07:02.499Z,23.02
2018-02-18T08:08:02.431Z,22.99
2018-02-18T08:09:02.391Z,22.96
2018-02-18T08:10:02.382Z,22.98
2018-02-18T08:11:02.500Z,23.06
2018-02-18T08:12:13.357Z,22.91
2018-02-18T08:13:05.148Z,23.01
2018-02-18T08:14:02.438Z,23.06
2018-02-18T08:15:02.178Z,22.92
2018-02-18T08:16:02.230Z,23.01
2018-02-18T08:17:02.107Z,23.02
2018-02-18T08:18:02.119Z,23.07
2018-02-18T08:19:02.041Z,23.07
2018-02-18T08:20:02.002Z,23.01
2018-02-18T08:21:02.001Z,23.07
2018-02-18T08:22:02.076Z,23.02
2018-02-18T08:23:01.909Z,23.10
2018-02-18T08:24:01.858Z,23.07
2018-02-18T08:25:07.146Z,23.04
2018-02-18T08:26:03.381Z,23.07
2018-02-18T08:27:02.005Z,23.04
2018-02-18T08:28:01.750Z,23.11
2018-02-18T08:29:01.687Z,23.10
2018-02-18T08:30:01.655Z,23.06
2018-02-18T08:31:01.798Z,23.07
2018-02-18T08:32:01.572Z,23.07
2018-02-18T08:33:01.864Z,23.10
2018-02-18T08:34:01.511Z,23.10
2018-02-18T08:35:01.473Z,23.11
2018-02-18T08:36:01.442Z,23.11
2018-02-18T08:37:01.553Z,23.04
2018-02-18T08:38:01.363Z,23.13
2018-02-18T08:39:01.356Z,23.11
2018-02-18T08:40:01.314Z,23.13
2018-02-18T08:41:03.289Z,23.13
2018-02-18T08:42:03.644Z,23.11
2018-02-18T08:44:49.387Z,23.13
2018-02-18T08:45:49.349Z,23.08
2018-02-18T08:46:49.276Z,23.17
2018-02-18T08:47:51.574Z,23.14
2018-02-18T08:48:59.510Z,23.11
2018-02-18T08:49:56.336Z,23.16
2018-02-18T08:50:49.304Z,23.17
2018-02-18T08:52:49.103Z,23.14
2018-02-18T08:53:51.512Z,23.14
2018-02-18T08:54:51.785Z,23.17
2018-02-18T08:55:49.092Z,23.21
2018-02-18T08:56:52.921Z,23.18
2018-02-18T08:57:52.980Z,23.17
2018-02-18T08:58:49.061Z,23.25
2018-02-18T08:59:48.826Z,23.20
2018-02-18T09:02:38.000Z,23.17
2018-02-18T09:03:26.395Z,23.26
2018-02-18T09:04:26.388Z,23.21
2018-02-18T09:05:26.240Z,23.25
2018-02-18T09:06:27.465Z,23.23
2018-02-18T09:07:26.344Z,23.20
2018-02-18T09:08:26.332Z,23.28
2018-02-18T09:09:26.627Z,23.26
2018-02-18T09:10:26.065Z,23.21
2018-02-18T09:11:26.254Z,23.29
2018-02-18T09:12:26.015Z,23.32
2018-02-18T09:13:26.007Z,23.21
2018-02-18T09:14:25.924Z,23.25
2018-02-18T09:15:25.926Z,23.28
2018-02-18T09:16:28.452Z,23.21
2018-02-18T09:17:29.244Z,23.34
2018-02-18T09:18:25.777Z,23.21
2018-02-18T09:19:25.766Z,23.29
2018-02-18T09:20:25.710Z,23.23
2018-02-18T09:21:28.283Z,23.36
2018-02-18T09:22:25.640Z,23.32
2018-02-18T09:23:25.611Z,23.28
2018-02-18T09:24:25.605Z,23.29
2018-02-18T09:25:27.728Z,23.34
2018-02-18T09:26:25.543Z,23.33
2018-02-18T09:27:25.526Z,23.37
2018-02-18T09:28:25.448Z,23.37
2018-02-18T09:29:25.392Z,23.34
2018-02-18T09:30:25.512Z,23.39
2018-02-18T09:31:25.318Z,23.45
2018-02-18T09:32:25.293Z,23.33
2018-02-18T09:33:25.274Z,23.36
2018-02-18T09:34:25.217Z,23.39
2018-02-18T09:35:25.178Z,23.49
2018-02-18T09:36:31.221Z,23.44
2018-02-18T09:37:26.515Z,23.48
2018-02-18T09:38:25.107Z,23.45
2018-02-18T09:39:25.052Z,23.52
2018-02-18T09:40:25.239Z,23.47
2018-02-18T09:41:24.968Z,23.51
2018-02-18T09:42:24.969Z,23.59
2018-02-18T09:43:24.905Z,23.54
2018-02-18T09:44:24.866Z,23.59
2018-02-18T09:45:24.830Z,23.63
2018-02-18T09:46:24.793Z,23.59
2018-02-18T09:47:26.583Z,23.56
2018-02-18T09:48:24.757Z,23.58
2018-02-18T09:49:24.687Z,23.64
2018-02-18T09:50:24.677Z,23.67
2018-02-18T09:51:24.615Z,23.63
2018-02-18T09:52:24.590Z,23.66
2018-02-18T09:53:24.551Z,23.70
2018-02-18T09:54:24.530Z,23.64
2018-02-18T09:55:24.477Z,23.66
2018-02-18T09:56:24.592Z,23.71
2018-02-18T09:57:24.437Z,23.70
2018-02-18T09:58:24.392Z,23.71
2018-02-18T09:59:24.368Z,23.69
2018-02-18T10:00:24.303Z,23.69
2018-02-18T10:01:25.672Z,23.77
2018-02-18T10:02:29.437Z,23.71
2018-02-18T10:03:25.406Z,23.74
2018-02-18T10:05:53.647Z,23.76
2018-02-18T10:06:25.808Z,23.81
2018-02-18T10:07:24.987Z,23.76
2018-02-18T10:08:25.777Z,23.77
2018-02-18T10:09:24.163Z,23.74
2018-02-18T10:10:25.604Z,23.74
2018-02-18T10:11:27.160Z,23.79
2018-02-18T10:12:24.840Z,23.77
2018-02-18T10:13:28.154Z,23.77
2018-02-18T10:14:27.212Z,23.88
2018-02-18T10:15:24.637Z,23.76
2018-02-18T10:16:23.811Z,23.81
2018-02-18T10:17:34.015Z,23.81
2018-02-18T10:18:24.215Z,23.79
2018-02-18T10:19:23.738Z,23.79
2018-02-18T10:20:23.628Z,23.79
2018-02-18T10:22:56.717Z,23.82
2018-02-18T10:23:56.601Z,23.89
2018-02-18T10:24:56.533Z,23.84
2018-02-18T10:25:56.660Z,23.85
2018-02-18T10:26:57.108Z,23.86
2018-02-18T10:27:56.475Z,23.81
2018-02-18T10:28:57.684Z,23.45
2018-02-18T10:29:56.358Z,23.10
2018-02-18T10:30:56.326Z,22.47
2018-02-18T10:31:56.285Z,21.92
2018-02-18T10:32:56.250Z,21.50
2018-02-18T10:33:56.240Z,20.86
2018-02-18T10:34:56.193Z,20.55
2018-02-18T10:35:56.188Z,20.04
2018-02-18T10:36:56.112Z,19.57
2018-02-18T10:37:56.071Z,19.26
2018-02-18T10:38:56.038Z,18.96
2018-02-18T10:39:58.331Z,18.58
2018-02-18T10:40:55.962Z,18.41
2018-02-18T10:41:55.928Z,18.06
2018-02-18T10:42:55.886Z,17.72
2018-02-18T10:43:55.869Z,17.52
2018-02-18T10:44:56.892Z,17.46
2018-02-18T10:45:55.786Z,17.39
2018-02-18T10:46:56.141Z,17.42
2018-02-18T10:47:55.708Z,17.54
2018-02-18T10:48:56.227Z,17.72
2018-02-18T10:49:57.851Z,17.94
2018-02-18T10:50:55.757Z,18.16
2018-02-18T10:51:55.571Z,18.43
2018-02-18T10:52:55.530Z,18.51
2018-02-18T10:53:55.483Z,18.73
2018-02-18T10:54:55.490Z,18.96
2018-02-18T10:55:58.080Z,19.04
2018-02-18T10:56:56.128Z,19.26
2018-02-18T10:57:55.330Z,19.48
2018-02-18T10:58:55.294Z,19.53
2018-02-18T10:59:55.310Z,19.75
2018-02-18T11:00:56.058Z,19.96
2018-02-18T11:01:59.388Z,20.04
2018-02-18T11:02:55.213Z,20.21
2018-02-18T11:03:55.174Z,20.29
2018-02-18T11:04:55.095Z,20.48
2018-02-18T11:05:55.120Z,20.56
2018-02-18T11:06:55.003Z,20.73
2018-02-18T11:07:54.972Z,20.86
2018-02-18T11:08:55.418Z,20.93
2018-02-18T11:09:54.887Z,21.08
2018-02-18T11:10:54.885Z,21.13
2018-02-18T11:11:54.812Z,21.33
2018-02-18T11:12:55.378Z,21.35
2018-02-18T11:13:54.734Z,21.53
2018-02-18T11:14:54.911Z,21.56
2018-02-18T11:15:55.830Z,21.59
2018-02-18T11:16:55.378Z,21.72
2018-02-18T11:17:54.592Z,21.85
2018-02-18T11:18:55.386Z,21.83
2018-02-18T11:19:54.527Z,21.96
2018-02-18T11:20:54.974Z,22.04
2018-02-18T11:21:54.464Z,22.12
2018-02-18T11:22:54.446Z,22.22
2018-02-18T11:23:54.496Z,22.28
2018-02-18T11:24:54.340Z,22.36
2018-02-18T11:25:54.373Z,22.31
2018-02-18T11:26:54.329Z,22.40
2018-02-18T11:27:54.227Z,22.43
2018-02-18T11:28:54.222Z,22.53
2018-02-18T11:29:54.162Z,22.55
2018-02-18T11:30:58.371Z,22.65
2018-02-18T11:31:55.358Z,22.73
2018-02-18T11:32:54.329Z,22.67
2018-02-18T11:34:00.038Z,22.83
2018-02-18T11:34:54.000Z,22.81
2018-02-18T11:35:53.944Z,22.86
2018-02-18T11:36:54.022Z,22.91
2018-02-18T11:37:53.900Z,23.01
2018-02-18T11:38:54.099Z,23.02
2018-02-18T11:39:54.140Z,22.96
2018-02-18T11:42:28.210Z,23.08
2018-02-18T11:43:27.764Z,23.08
2018-02-18T11:44:29.832Z,23.16
2018-02-18T11:45:27.905Z,23.14
2018-02-18T11:46:28.080Z,23.16
2018-02-18T11:47:27.646Z,23.17
2018-02-18T11:48:27.578Z,23.21
2018-02-18T11:49:27.551Z,23.23
2018-02-18T11:50:27.535Z,23.28
2018-02-18T11:51:27.500Z,23.26
2018-02-18T11:52:27.454Z,23.29
2018-02-18T11:53:32.164Z,23.34
2018-02-18T11:54:27.946Z,23.37
2018-02-18T11:55:31.489Z,23.32
2018-02-18T11:56:27.830Z,23.34
2018-02-18T11:57:27.287Z,23.39
2018-02-18T11:58:28.075Z,23.34
2018-02-18T11:59:29.307Z,23.49
2018-02-18T12:00:27.287Z,23.48
2018-02-18T12:01:27.575Z,23.51
2018-02-18T12:02:29.238Z,23.54
2018-02-18T12:03:27.895Z,23.54
2018-02-18T12:04:27.194Z,23.62
2018-02-18T12:05:26.982Z,23.54
2018-02-18T12:06:26.951Z,23.56
2018-02-18T12:07:26.985Z,23.56
2018-02-18T12:08:27.045Z,23.55
2018-02-18T12:09:30.576Z,23.55
2018-02-18T12:10:26.802Z,23.58
2018-02-18T12:11:26.769Z,23.59
2018-02-18T12:12:26.752Z,23.62
2018-02-18T12:13:26.737Z,23.62
2018-02-18T12:14:26.664Z,23.63
2018-02-18T12:15:26.634Z,23.63
2018-02-18T12:16:26.595Z,23.67
2018-02-18T12:17:27.082Z,23.70
2018-02-18T12:18:26.532Z,23.73
2018-02-18T12:19:26.551Z,23.71
2018-02-18T12:20:26.477Z,23.70
2018-02-18T12:21:26.929Z,23.70
2018-02-18T12:22:26.434Z,23.77
2018-02-18T12:23:27.082Z,23.77
2018-02-18T12:24:27.911Z,23.79
2018-02-18T12:25:27.438Z,23.79
2018-02-18T12:26:26.248Z,23.79
2018-02-18T12:27:26.209Z,23.81
2018-02-18T12:28:26.229Z,23.84
2018-02-18T12:29:26.276Z,23.82
2018-02-18T12:30:29.461Z,23.88
2018-02-18T12:31:26.660Z,23.84
2018-02-18T12:32:26.030Z,23.85
2018-02-18T12:33:26.025Z,23.85
2018-02-18T12:34:26.009Z,23.85
2018-02-18T12:35:26.915Z,23.82
2018-02-18T12:36:28.118Z,23.84
2018-02-18T12:37:25.911Z,23.85
2018-02-18T12:38:25.831Z,23.85
2018-02-18T12:39:25.793Z,23.85
2018-02-18T12:40:25.754Z,23.89
2018-02-18T12:41:31.398Z,23.91
2018-02-18T12:42:25.743Z,23.88
2018-02-18T12:43:30.302Z,23.89
2018-02-18T12:44:26.793Z,23.94
2018-02-18T12:45:25.602Z,23.96
2018-02-18T12:46:29.872Z,23.86
2018-02-18T12:47:25.561Z,23.95
2018-02-18T12:48:25.473Z,23.88
2018-02-18T12:49:25.436Z,23.89
2018-02-18T12:50:25.405Z,23.94
2018-02-18T12:51:25.373Z,24.00
2018-02-18T12:52:25.369Z,23.89
2018-02-18T12:56:31.449Z,23.92
2018-02-18T12:57:31.886Z,23.89
2018-02-18T12:58:31.369Z,23.91
2018-02-18T12:59:31.334Z,23.89
2018-02-18T13:00:31.295Z,23.91
2018-02-18T13:01:50.216Z,23.88
2018-02-18T13:06:13.029Z,23.89
2018-02-18T13:07:12.939Z,23.86
2018-02-18T13:08:13.003Z,23.94
2018-02-18T13:09:12.800Z,23.95
2018-02-18T13:10:12.704Z,23.86
2018-02-18T13:11:12.660Z,23.85
2018-02-18T13:12:13.205Z,23.89
2018-02-18T13:13:12.594Z,23.92
2018-02-18T13:18:30.007Z,23.85
2018-02-18T13:19:28.635Z,23.84
2018-02-18T13:20:28.565Z,23.82